Time;durP1;ratioP1;P1;durP2;ratioP2;P2;SDS_P1;SDS_P2;PMS_P1;PMS_P2;Temp;Humidity;BMP_temperature;BMP_pressure;BME280_temperature;BME280_humidity;BME280_pressure;Samples;Min_cycle;Max_cycle;Signal;HPM_P1;HPM_P2
2021/11/08 00:01:45;;;;;;;14.10;4.97;;;;;;;6.54;93.43;100821.94;5010760;28;20049;-52
2021/11/08 00:04:12;;;;;;;13.43;4.53;;;;;;;6.54;93.84;100819.31;5019220;28;20041;-54
2021/11/08 00:06:39;;;;;;;16.67;4.65;;;;;;;6.56;93.63;100821.91;5019728;28;20523;-53
2021/11/08 00:09:07;;;;;;;15.40;5.28;;;;;;;6.55;93.53;100826.31;5027003;28;20041;-53
2021/11/08 00:11:35;;;;;;;14.45;4.82;;;;;;;6.53;93.53;100820.19;5023011;28;20417;-52
2021/11/08 00:14:02;;;;;;;12.50;4.57;;;;;;;6.51;93.45;100818.50;5018040;28;20080;-54
2021/11/08 00:21:22;;;;;;;12.73;4.75;;;;;;;6.45;94.14;100831.81;5024843;28;20041;-52
2021/11/08 00:23:50;;;;;;;18.17;4.82;;;;;;;6.46;94.02;100828.25;5023653;28;20044;-51
2021/11/08 00:26:17;;;;;;;11.32;4.60;;;;;;;6.46;94.18;100838.78;5021225;28;20387;-52
2021/11/08 00:28:44;;;;;;;14.45;4.97;;;;;;;6.45;94.38;100832.69;5022439;28;20368;-52
2021/11/08 00:31:10;;;;;;;16.20;5.05;;;;;;;6.39;93.94;100832.81;5026681;28;20045;-53
2021/11/08 00:33:39;;;;;;;16.95;4.93;;;;;;;6.42;94.41;100830.13;5024575;28;20048;-51
2021/11/08 00:36:06;;;;;;;16.20;5.15;;;;;;;6.43;94.53;100841.50;5016201;28;20125;-51
2021/11/08 00:38:32;;;;;;;17.27;5.13;;;;;;;6.40;94.42;100839.81;5025419;28;20048;-51
2021/11/08 00:40:59;;;;;;;15.48;4.95;;;;;;;6.39;94.46;100842.47;5026556;28;20099;-50
2021/11/08 00:43:25;;;;;;;12.13;4.55;;;;;;;6.40;94.72;100841.56;5022965;28;20064;-52
2021/11/08 00:45:52;;;;;;;20.00;5.22;;;;;;;6.41;95.24;100852.06;5013383;28;20045;-54
2021/11/08 00:48:23;;;;;;;13.75;4.82;;;;;;;6.48;95.07;100847.50;5027137;28;20045;-51
2021/11/08 00:50:53;;;;;;;11.98;4.63;;;;;;;6.49;94.69;100852.75;5025010;28;20050;-52
2021/11/08 00:53:19;;;;;;;17.27;5.53;;;;;;;6.54;94.47;100853.50;5025008;28;20052;-52
2021/11/08 00:55:49;;;;;;;16.63;5.35;;;;;;;6.58;94.32;100849.91;5014047;28;20136;-51
2021/11/08 00:58:21;;;;;;;12.43;4.97;;;;;;;6.60;94.32;100845.47;5021922;28;20042;-55
2021/11/08 01:00:48;;;;;;;15.57;5.70;;;;;;;6.65;94.13;100853.25;5022802;28;20511;-52
2021/11/08 01:03:18;;;;;;;13.13;4.88;;;;;;;6.67;93.71;100851.44;5006261;28;20492;-52
2021/11/08 01:05:45;;;;;;;14.20;5.38;;;;;;;6.67;93.77;100854.94;4990177;28;20049;-51
2021/11/08 01:08:12;;;;;;;11.43;4.90;;;;;;;6.68;93.98;100858.44;5006097;28;20392;-53
2021/11/08 01:10:39;;;;;;;15.93;5.15;;;;;;;6.67;93.67;100860.22;5005703;28;20076;-51
2021/11/08 01:13:05;;;;;;;14.40;4.10;;;;;;;6.67;93.59;100862.84;5004426;28;20050;-52
2021/11/08 01:15:32;;;;;;;13.57;4.82;;;;;;;6.66;93.26;100870.78;4995989;28;20152;-52
2021/11/08 01:17:59;;;;;;;14.68;4.95;;;;;;;6.67;93.00;100869.88;5004316;28;20486;-52
2021/11/08 01:20:32;;;;;;;15.20;5.10;;;;;;;6.64;92.77;100878.69;5006580;28;20050;-52
2021/11/08 01:23:04;;;;;;;13.52;5.28;;;;;;;6.58;92.35;100868.34;5004870;28;20416;-51
2021/11/08 01:25:34;;;;;;;12.13;4.72;;;;;;;6.56;92.29;100871.91;4981533;28;20334;-51
2021/11/08 01:28:04;;;;;;;19.00;4.63;;;;;;;6.49;92.59;100880.81;5004741;28;20126;-52
2021/11/08 01:30:30;;;;;;;14.03;5.33;;;;;;;6.45;92.86;100873.91;4998641;28;20038;-52
2021/11/08 01:35:31;;;;;;;18.63;4.75;;;;;;;6.41;93.20;100867.84;4996394;28;20054;-54
2021/11/08 01:38:06;;;;;;;12.32;5.25;;;;;;;6.39;93.34;100869.66;5003641;28;20046;-53
2021/11/08 01:40:34;;;;;;;14.90;5.35;;;;;;;6.36;93.53;100871.47;5004671;28;20124;-52
2021/11/08 01:43:01;;;;;;;15.52;5.20;;;;;;;6.38;93.74;100874.94;5001433;28;20522;-52
2021/11/08 01:45:27;;;;;;;15.57;4.88;;;;;;;6.40;94.04;100883.66;4994010;28;20310;-52
2021/11/08 01:47:54;;;;;;;16.40;5.90;;;;;;;6.30;93.91;100870.69;5004932;28;20431;-51
2021/11/08 01:50:20;;;;;;;11.52;4.90;;;;;;;6.40;93.50;100887.16;5002509;28;20519;-53
2021/11/08 01:52:47;;;;;;;14.85;4.97;;;;;;;6.40;93.68;100883.66;5005063;28;20585;-53
2021/11/08 01:55:13;;;;;;;12.70;4.95;;;;;;;6.41;93.13;100883.63;4994328;28;20053;-51
2021/11/08 01:57:41;;;;;;;13.10;4.80;;;;;;;6.41;93.11;100883.63;5008156;28;20493;-54
2021/11/08 02:00:10;;;;;;;15.93;4.82;;;;;;;6.38;93.16;100883.69;5005454;28;20049;-54
2021/11/08 02:02:36;;;;;;;16.83;5.43;;;;;;;6.41;92.91;100888.91;5021696;28;20057;-53
2021/11/08 02:05:04;;;;;;;18.75;5.35;;;;;;;6.39;93.19;100885.44;5016524;28;21282;-53
2021/11/08 02:07:31;;;;;;;17.15;4.60;;;;;;;6.39;92.71;100877.53;5025922;28;20037;-50
2021/11/08 02:09:58;;;;;;;13.48;4.78;;;;;;;6.46;93.02;100886.13;5028163;28;20499;-53
2021/11/08 02:12:24;;;;;;;10.80;4.78;;;;;;;6.46;93.11;100879.13;5028030;28;20038;-51
2021/11/08 02:14:51;;;;;;;12.30;4.82;;;;;;;6.49;92.56;100881.69;5019942;28;20042;-53
2021/11/08 02:17:17;;;;;;;15.13;4.97;;;;;;;6.47;93.26;100877.34;5022731;28;20050;-52
2021/11/08 02:19:44;;;;;;;15.63;4.65;;;;;;;6.47;92.77;100872.09;5024966;28;20492;-53
2021/11/08 02:22:11;;;;;;;16.45;5.20;;;;;;;6.47;92.63;100886.09;5026219;28;20045;-53
2021/11/08 02:24:41;;;;;;;13.63;4.82;;;;;;;6.48;92.82;100884.34;5026463;28;20042;-52
2021/11/08 02:27:09;;;;;;;16.25;5.63;;;;;;;6.44;92.72;100880.06;5018231;28;20051;-57
2021/11/08 02:29:35;;;;;;;11.13;4.25;;;;;;;6.45;92.50;100885.31;5021261;28;20058;-52
2021/11/08 02:32:04;;;;;;;11.77;4.80;;;;;;;6.44;92.55;100886.19;5029037;28;20123;-52
2021/11/08 02:34:30;;;;;;;16.17;5.32;;;;;;;6.45;92.74;100893.19;5026019;28;20521;-52
2021/11/08 02:36:57;;;;;;;16.63;4.65;;;;;;;6.44;92.27;100904.63;5016739;28;20038;-51
2021/11/08 02:39:32;;;;;;;13.18;4.65;;;;;;;6.44;92.14;100898.50;5027295;28;20052;-51
2021/11/08 02:41:59;;;;;;;14.60;4.63;;;;;;;6.43;92.35;100897.63;5027993;28;20590;-54
2021/11/08 02:44:27;;;;;;;16.63;4.65;;;;;;;6.41;92.80;100898.56;5020333;28;20053;-51
2021/11/08 02:46:55;;;;;;;16.38;5.03;;;;;;;6.42;92.82;100909.03;5014116;28;20059;-52
2021/11/08 02:49:24;;;;;;;16.40;5.38;;;;;;;6.42;92.88;100905.53;5027965;28;20045;-51
2021/11/08 02:52:00;;;;;;;14.40;5.13;;;;;;;6.39;93.02;100903.84;5027238;28;20045;-51
2021/11/08 02:54:32;;;;;;;14.27;4.72;;;;;;;6.39;92.99;100905.59;5026719;28;20045;-52
2021/11/08 02:56:59;;;;;;;17.83;4.85;;;;;;;6.41;93.13;100906.44;5011685;28;20125;-53
2021/11/08 02:59:28;;;;;;;17.02;4.78;;;;;;;6.38;92.71;100910.00;5026370;28;20087;-54
2021/11/08 03:01:56;;;;;;;14.77;4.93;;;;;;;6.25;92.47;100892.75;5015143;28;20364;-53
2021/11/08 03:04:37;;;;;;;17.23;4.60;;;;;;;6.34;92.77;100917.09;5001121;28;20094;-53
2021/11/08 03:07:03;;;;;;;14.63;5.00;;;;;;;6.36;92.87;100910.94;4995543;28;20038;-53
2021/11/08 03:09:34;;;;;;;12.63;4.93;;;;;;;6.34;93.03;100909.19;5010514;28;20045;-52
2021/11/08 03:12:13;;;;;;;13.73;4.70;;;;;;;6.34;92.88;100903.06;5005424;28;20452;-53
2021/11/08 03:14:47;;;;;;;13.82;4.60;;;;;;;6.34;93.42;100913.59;5007956;28;20045;-52
2021/11/08 03:17:17;;;;;;;15.30;4.70;;;;;;;6.30;93.48;100909.28;4998576;28;20407;-53
2021/11/08 03:19:44;;;;;;;14.73;4.68;;;;;;;6.26;93.54;100916.41;5002726;28;20046;-53
2021/11/08 03:22:15;;;;;;;15.90;4.78;;;;;;;6.23;94.02;100905.06;5007593;28;20042;-53
2021/11/08 03:27:29;;;;;;;15.40;4.78;;;;;;;6.19;93.71;100901.63;4992718;28;20065;-52
2021/11/08 03:29:56;;;;;;;17.10;5.05;;;;;;;6.20;94.23;100907.75;5002291;28;20045;-52
2021/11/08 03:32:23;;;;;;;17.50;5.38;;;;;;;6.19;94.16;100903.38;5007323;28;20049;-52
2021/11/08 03:35:02;;;;;;;16.95;5.03;;;;;;;6.21;94.33;100909.50;5004512;28;20045;-51
2021/11/08 03:37:35;;;;;;;18.38;5.50;;;;;;;6.23;94.26;100910.31;5000719;28;20411;-52
2021/11/08 03:40:02;;;;;;;14.90;4.65;;;;;;;6.23;93.78;100905.06;5006374;28;20053;-55
2021/11/08 03:42:29;;;;;;;20.00;5.28;;;;;;;6.19;94.11;100904.25;5005400;28;20088;-51
2021/11/08 03:44:55;;;;;;;17.27;5.15;;;;;;;6.19;94.29;100903.38;5004957;28;20044;-52
2021/11/08 03:47:22;;;;;;;12.43;5.18;;;;;;;6.17;94.34;100913.06;4997005;28;20038;-52
2021/11/08 03:49:48;;;;;;;13.50;5.15;;;;;;;6.15;94.60;100915.72;5005491;28;20483;-52
2021/11/08 03:52:14;;;;;;;16.38;5.22;;;;;;;6.11;94.36;100914.09;5006643;28;20129;-53
2021/11/08 03:54:41;;;;;;;19.10;5.63;;;;;;;6.07;94.77;100917.66;5005567;28;20133;-52
2021/11/08 03:57:07;;;;;;;15.05;5.22;;;;;;;6.06;94.87;100926.44;4996674;28;20045;-52
2021/11/08 03:59:34;;;;;;;15.88;6.15;;;;;;;6.03;94.92;100929.13;5004148;28;20045;-52
2021/11/08 04:02:02;;;;;;;19.42;5.53;;;;;;;5.99;95.03;100928.31;5018494;28;20413;-53
2021/11/08 04:04:28;;;;;;;11.60;5.03;;;;;;;5.94;95.50;100937.22;5026065;28;20376;-51
2021/11/08 04:06:56;;;;;;;16.00;5.40;;;;;;;5.96;95.08;100944.19;5014925;28;20033;-51
2021/11/08 04:09:24;;;;;;;17.50;5.85;;;;;;;5.96;95.24;100948.56;5025599;28;20498;-54
2021/11/08 04:11:51;;;;;;;14.77;5.40;;;;;;;5.97;95.44;100940.66;5023879;28;20041;-52
2021/11/08 04:14:19;;;;;;;17.58;5.43;;;;;;;5.95;95.85;100944.19;5025136;28;20050;-54
2021/11/08 04:16:46;;;;;;;15.68;5.22;;;;;;;5.96;95.27;100941.53;5016424;28;20499;-52
2021/11/08 04:19:13;;;;;;;16.02;5.22;;;;;;;5.98;95.58;100944.16;5021595;28;20068;-51
2021/11/08 04:21:40;;;;;;;17.83;6.20;;;;;;;5.96;95.37;100943.31;5026510;28;20045;-52
2021/11/08 04:24:08;;;;;;;13.55;5.00;;;;;;;5.95;95.70;100944.19;5025544;28;20037;-51
2021/11/08 04:26:36;;;;;;;14.95;5.40;;;;;;;5.96;96.19;100948.56;5016423;28;20080;-54
2021/11/08 04:29:05;;;;;;;13.25;5.68;;;;;;;5.97;96.17;100956.44;5023909;28;20049;-52
2021/11/08 04:31:35;;;;;;;17.35;5.32;;;;;;;5.96;95.64;100957.31;5026022;28;20045;-51
2021/11/08 04:34:11;;;;;;;20.70;5.57;;;;;;;5.95;96.00;100963.47;5024637;28;20050;-54
2021/11/08 04:52:51;;;;;;;20.08;5.43;;;;;;;6.02;94.00;100958.06;5026818;28;20057;-52
2021/11/08 05:28:19;;;;;;;20.63;6.35;;;;;;;5.96;93.81;100982.75;4996787;28;20061;-53
2021/11/08 05:30:46;;;;;;;19.10;6.35;;;;;;;5.94;94.15;100987.16;5006625;28;20042;-54
2021/11/08 05:33:12;;;;;;;15.63;7.30;;;;;;;5.94;94.31;100998.53;5010037;28;20044;-52
2021/11/08 05:35:39;;;;;;;20.70;6.80;;;;;;;5.96;94.26;100988.00;5005417;28;20096;-53
2021/11/08 05:38:06;;;;;;;17.25;5.65;;;;;;;5.98;93.92;100989.66;5001458;28;20046;-52
2021/11/08 05:40:34;;;;;;;20.58;6.40;;;;;;;5.99;94.18;100986.16;5011959;28;20069;-53
2021/11/08 05:43:03;;;;;;;18.83;7.47;;;;;;;5.97;94.37;100987.97;5005124;28;20049;-52
2021/11/08 05:45:33;;;;;;;15.68;6.53;;;;;;;5.99;93.92;100993.16;5010186;28;20513;-51
2021/11/08 05:48:02;;;;;;;16.17;6.35;;;;;;;5.99;94.57;100985.28;4996345;28;20580;-54
2021/11/08 05:50:30;;;;;;;11.75;6.32;;;;;;;6.01;94.66;100985.25;5008075;28;20042;-55
2021/11/08 05:52:57;;;;;;;17.20;7.13;;;;;;;5.99;94.63;100990.53;5008997;28;20050;-58
2021/11/08 06:50:17;;;;;;;19.38;8.48;;;;;;;6.08;94.35;101036.84;5025507;28;20033;-52
2021/11/08 06:52:49;;;;;;;17.65;7.95;;;;;;;6.08;94.37;101045.59;5032040;28;20076;-54
2021/11/08 06:55:18;;;;;;;20.48;7.30;;;;;;;6.10;94.02;101040.31;5027302;28;20092;-52
2021/11/08 06:57:51;;;;;;;23.33;8.02;;;;;;;6.13;94.08;101045.53;5012864;28;20363;-52
2021/11/08 07:00:24;;;;;;;17.40;7.60;;;;;;;6.17;94.17;101045.41;5027166;28;20068;-52
2021/11/08 07:02:51;;;;;;;20.88;8.55;;;;;;;6.19;93.94;101055.91;5010544;28;20057;-52
2021/11/08 07:05:17;;;;;;;20.80;8.45;;;;;;;6.18;93.24;101051.53;4999616;28;20510;-52
2021/11/08 07:07:44;;;;;;;23.65;8.57;;;;;;;6.22;93.40;101046.22;4988399;28;20053;-52
2021/11/08 07:10:11;;;;;;;16.98;7.47;;;;;;;6.29;92.76;101053.09;5009324;28;20042;-53
2021/11/08 07:12:37;;;;;;;25.50;8.43;;;;;;;6.31;92.61;101063.56;5007719;28;20652;-51
2021/11/08 07:15:06;;;;;;;19.80;8.48;;;;;;;6.26;92.67;101068.06;5004951;28;20041;-53
2021/11/08 07:17:35;;;;;;;31.42;8.75;;;;;;;6.37;95.12;101073.13;4996143;28;20149;-51
2021/11/08 07:20:03;;;;;;;19.60;7.82;;;;;;;6.37;92.69;101073.97;5002017;28;20479;-54
2021/11/08 07:22:29;;;;;;;20.95;8.05;;;;;;;6.38;92.72;101065.19;5007501;28;20050;-53
2021/11/08 07:24:56;;;;;;;21.75;8.32;;;;;;;6.38;91.93;101070.47;5004995;28;20411;-52
2021/11/08 07:27:23;;;;;;;26.13;7.97;;;;;;;6.40;91.40;101073.94;4995538;28;20057;-52
2021/11/08 07:29:51;;;;;;;18.77;7.72;;;;;;;6.37;91.72;101076.63;5005497;28;20132;-51
2021/11/08 07:32:18;;;;;;;21.67;7.63;;;;;;;6.43;90.81;101078.28;5008344;28;20463;-52
2021/11/08 07:34:45;;;;;;;20.02;7.35;;;;;;;6.37;91.48;101084.50;5006563;28;20046;-53
2021/11/08 07:37:11;;;;;;;17.40;7.32;;;;;;;6.33;91.62;101088.09;4998341;28;20054;-51
2021/11/08 07:39:38;;;;;;;23.15;8.15;;;;;;;6.33;92.28;101090.72;5005097;28;20042;-52
2021/11/08 07:42:05;;;;;;;22.92;7.57;;;;;;;6.36;91.87;101093.28;5002368;28;20491;-52
2021/11/08 07:44:31;;;;;;;22.70;7.25;;;;;;;6.37;91.44;101091.53;5008329;28;20041;-52
2021/11/08 07:46:58;;;;;;;23.50;7.35;;;;;;;6.37;91.77;101092.41;4998262;28;20053;-53
2021/11/08 07:49:24;;;;;;;21.90;7.55;;;;;;;6.37;91.65;101092.41;4994472;28;20041;-51
2021/11/08 07:51:51;;;;;;;17.63;7.45;;;;;;;6.38;91.64;101096.75;5007008;28;20613;-52
2021/11/08 07:54:18;;;;;;;25.42;7.95;;;;;;;6.41;91.83;101093.22;5006096;28;20049;-57
2021/11/08 07:56:47;;;;;;;19.88;8.18;;;;;;;6.48;91.12;101103.56;5002148;28;20549;-52
2021/11/08 07:59:18;;;;;;;16.98;6.88;;;;;;;6.56;91.19;101108.72;4996851;28;20042;-51
2021/11/08 08:01:47;;;;;;;19.90;7.40;;;;;;;6.63;90.33;101116.44;5016986;28;20561;-52
2021/11/08 08:04:13;;;;;;;29.02;8.63;;;;;;;6.58;90.33;101110.41;5024498;28;20049;-52
2021/11/08 08:06:40;;;;;;;19.55;7.95;;;;;;;6.55;91.05;101112.22;5024479;28;20046;-52
2021/11/08 08:09:07;;;;;;;25.77;8.55;;;;;;;6.55;91.50;101107.84;5016724;28;20444;-52
2021/11/08 08:11:33;;;;;;;21.38;8.05;;;;;;;6.58;91.02;101107.78;5026016;28;20053;-52
2021/11/08 08:14:00;;;;;;;24.45;8.95;;;;;;;6.62;91.03;101112.06;5022358;28;20473;-52
2021/11/08 08:16:27;;;;;;;24.85;9.20;;;;;;;6.64;91.28;101115.53;5020547;28;20057;-52
2021/11/08 08:18:54;;;;;;;21.15;8.68;;;;;;;6.71;91.10;101108.41;5010734;28;20038;-53
2021/11/08 08:21:22;;;;;;;21.35;8.43;;;;;;;6.79;91.08;101109.09;5023904;28;20051;-53
2021/11/08 08:23:56;;;;;;;19.25;8.52;;;;;;;6.90;90.73;101104.53;5025566;28;20084;-53
2021/11/08 08:26:39;;;;;;;19.58;7.93;;;;;;;7.01;90.25;101110.41;5025228;28;20132;-53
2021/11/08 08:29:08;;;;;;;22.70;8.73;;;;;;;7.13;90.09;101122.44;5018180;28;20038;-53
2021/11/08 08:31:37;;;;;;;19.67;8.40;;;;;;;7.21;88.73;101123.16;5026439;28;20053;-51
2021/11/08 08:34:05;;;;;;;20.23;8.20;;;;;;;7.32;88.67;101118.53;5019487;28;20053;-51
2021/11/08 08:36:33;;;;;;;22.25;8.15;;;;;;;7.39;89.55;101125.41;5024765;28;20398;-51
2021/11/08 08:38:59;;;;;;;20.38;7.35;;;;;;;7.50;88.83;101119.00;5016315;28;20056;-52
2021/11/08 08:41:26;;;;;;;23.05;8.32;;;;;;;7.47;88.30;101121.72;5025361;28;20041;-51
2021/11/08 08:43:52;;;;;;;15.75;7.68;;;;;;;7.36;87.75;101104.38;5024272;28;20045;-51
2021/11/08 08:46:20;;;;;;;20.85;7.70;;;;;;;7.46;87.94;101123.47;5026249;28;20052;-52
2021/11/08 08:48:49;;;;;;;24.50;8.50;;;;;;;7.47;87.63;101125.22;5008073;28;20050;-52
2021/11/08 08:51:16;;;;;;;23.48;8.68;;;;;;;7.53;88.54;101124.22;5024864;28;20518;-52
2021/11/08 08:53:43;;;;;;;20.75;8.43;;;;;;;7.67;87.72;101128.28;5025432;28;20049;-54
2021/11/08 08:56:19;;;;;;;21.20;7.68;;;;;;;7.70;87.53;101122.94;5025380;28;20069;-53
2021/11/08 08:58:46;;;;;;;31.00;8.40;;;;;;;7.67;87.61;101122.13;5014664;28;20125;-53
2021/11/08 09:01:12;;;;;;;22.13;8.63;;;;;;;7.72;88.55;101125.50;5019733;28;20060;-52
2021/11/08 09:03:39;;;;;;;21.05;8.27;;;;;;;7.81;88.66;101133.22;5003223;28;20045;-52
2021/11/08 09:06:05;;;;;;;24.95;8.90;;;;;;;7.98;88.27;101143.34;5004561;28;20045;-53
2021/11/08 09:08:32;;;;;;;24.52;9.05;;;;;;;8.02;87.72;101143.25;5001730;28;20140;-52
2021/11/08 09:10:59;;;;;;;18.90;8.40;;;;;;;8.09;86.93;101150.09;5010784;28;20048;-52
2021/11/08 09:13:26;;;;;;;16.20;7.32;;;;;;;8.23;86.82;101151.53;5008702;28;20046;-53
2021/11/08 09:15:52;;;;;;;19.52;8.30;;;;;;;8.30;85.90;101159.25;5009302;28;20380;-52
2021/11/08 09:18:19;;;;;;;30.15;8.55;;;;;;;8.26;85.88;101157.59;4996380;28;20054;-52
2021/11/08 09:20:46;;;;;;;26.95;8.65;;;;;;;8.28;86.39;101158.44;5004442;28;20079;-52
2021/11/08 09:23:13;;;;;;;20.83;8.07;;;;;;;8.32;85.45;101156.63;5010049;28;20058;-52
2021/11/08 09:25:39;;;;;;;26.65;8.27;;;;;;;8.34;85.80;101149.53;5010071;28;20065;-52
2021/11/08 09:28:07;;;;;;;22.50;8.05;;;;;;;8.69;84.67;101141.50;4995485;28;20565;-53
2021/11/08 09:30:40;;;;;;;19.67;7.80;;;;;;;9.27;82.62;101139.88;5001932;28;20053;-52
2021/11/08 09:33:09;;;;;;;21.08;7.70;;;;;;;9.68;80.27;101146.53;5009213;28;20050;-56
2021/11/08 09:35:37;;;;;;;23.08;6.78;;;;;;;9.78;77.88;101153.25;5001945;28;20053;-52
2021/11/08 09:38:09;;;;;;;21.83;7.07;;;;;;;9.68;77.66;101150.94;4998322;28;20064;-52
2021/11/08 09:40:38;;;;;;;17.98;6.65;;;;;;;9.67;78.41;101154.50;5001985;28;20049;-53
2021/11/08 09:43:10;;;;;;;18.25;6.57;;;;;;;9.73;77.99;101154.34;5003524;28;20327;-52
2021/11/08 09:45:37;;;;;;;17.50;7.10;;;;;;;9.63;77.79;101145.81;5001430;28;20429;-53
2021/11/08 09:48:04;;;;;;;22.75;7.15;;;;;;;9.41;78.45;101148.25;5004037;28;20046;-53
2021/11/08 09:50:34;;;;;;;21.95;6.95;;;;;;;9.29;78.87;101153.00;5001449;28;20518;-53
2021/11/08 09:53:04;;;;;;;21.35;7.07;;;;;;;9.28;79.18;101151.31;5008854;28;20399;-53
2021/11/08 09:55:31;;;;;;;17.57;6.03;;;;;;;9.35;78.18;101152.84;5008439;28;20513;-51
2021/11/08 09:57:58;;;;;;;23.17;7.03;;;;;;;9.30;78.84;101146.81;4994423;28;20495;-53
2021/11/08 10:00:44;;;;;;;20.13;6.85;;;;;;;9.33;79.51;101154.66;5002628;28;20041;-54
2021/11/08 10:03:18;;;;;;;19.58;6.45;;;;;;;9.34;78.45;101151.97;5022770;28;20133;-52
2021/11/08 10:05:47;;;;;;;17.58;6.07;;;;;;;9.41;78.60;101147.38;5022693;28;20045;-53
2021/11/08 10:08:21;;;;;;;19.63;7.18;;;;;;;9.46;78.48;101150.75;5020274;28;20042;-54
2021/11/08 10:10:50;;;;;;;22.40;7.20;;;;;;;9.52;78.44;101140.00;5024530;28;20046;-53
2021/11/08 10:13:20;;;;;;;23.95;7.50;;;;;;;9.45;80.05;101149.88;5023261;28;20052;-53
2021/11/08 10:15:50;;;;;;;21.67;8.25;;;;;;;9.55;79.76;101149.59;5027771;28;20426;-55
2021/11/08 10:18:19;;;;;;;17.77;7.53;;;;;;;9.74;78.61;101148.13;5017053;28;20042;-52
2021/11/08 10:20:49;;;;;;;18.85;8.20;;;;;;;9.91;78.37;101151.09;5029620;28;20049;-52
2021/11/08 10:23:18;;;;;;;20.25;9.23;;;;;;;10.00;77.50;101144.63;5028437;28;20060;-52
2021/11/08 10:25:46;;;;;;;22.08;9.60;;;;;;;10.04;78.31;101141.84;5027810;28;20491;-53
2021/11/08 10:28:16;;;;;;;20.80;9.68;;;;;;;10.08;77.13;101148.75;5016626;28;20041;-53
2021/11/08 10:30:45;;;;;;;26.17;10.50;;;;;;;10.24;76.80;101145.63;5030505;28;20045;-54
2021/11/08 10:33:16;;;;;;;23.73;9.40;;;;;;;10.26;75.48;101149.09;5027922;28;20041;-52
2021/11/08 10:35:48;;;;;;;23.65;9.40;;;;;;;10.12;76.29;101142.44;5025957;28;20041;-52
2021/11/08 10:38:18;;;;;;;24.95;8.88;;;;;;;10.04;76.04;101130.41;5018727;28;20053;-52
2021/11/08 10:40:51;;;;;;;23.97;8.50;;;;;;;10.22;75.68;101153.66;5021211;28;20114;-50
2021/11/08 10:43:32;;;;;;;20.40;8.85;;;;;;;10.18;75.96;101151.97;5026601;28;20052;-51
2021/11/08 10:46:12;;;;;;;19.45;8.75;;;;;;;10.09;75.73;101158.41;5027326;28;20041;-53
2021/11/08 10:48:41;;;;;;;19.52;8.82;;;;;;;10.03;76.18;101156.00;5016076;28;20042;-52
2021/11/08 10:51:11;;;;;;;23.30;8.60;;;;;;;9.98;76.50;101157.91;5026546;28;20049;-52
2021/11/08 10:53:57;;;;;;;25.85;9.73;;;;;;;9.98;76.63;101149.97;5036176;28;20459;-52
2021/11/08 10:56:33;;;;;;;22.92;8.52;;;;;;;10.09;77.45;101146.97;5026259;28;20329;-52
2021/11/08 10:59:03;;;;;;;27.60;8.65;;;;;;;10.08;76.36;101140.81;5015704;28;20038;-52
2021/11/08 11:01:36;;;;;;;27.83;10.87;;;;;;;9.95;78.01;101143.91;5028700;28;20045;-53
2021/11/08 11:04:06;;;;;;;22.25;8.68;;;;;;;10.00;76.87;101136.69;5025396;28;20483;-54
2021/11/08 11:06:43;;;;;;;24.48;8.52;;;;;;;10.04;77.40;101140.97;5028832;28;20052;-52
2021/11/08 11:09:26;;;;;;;23.38;7.55;;;;;;;10.11;76.92;101129.25;5012432;28;20038;-54
2021/11/08 11:12:15;;;;;;;28.83;10.00;;;;;;;10.21;76.24;101125.44;5027761;28;20045;-53
2021/11/08 11:14:47;;;;;;;21.63;9.35;;;;;;;10.22;76.31;101118.38;5022293;28;20382;-53
2021/11/08 11:17:25;;;;;;;24.55;8.35;;;;;;;10.26;76.12;101115.53;5026002;28;20055;-52
2021/11/08 11:20:21;;;;;;;22.00;7.95;;;;;;;10.28;75.54;101103.13;5016334;28;20048;-51
2021/11/08 11:23:19;;;;;;;16.85;6.60;;;;;;;10.34;76.23;101094.13;5027331;28;20053;-51
2021/11/08 11:25:52;;;;;;;19.35;6.80;;;;;;;10.82;73.48;101118.84;5026778;28;20049;-52
2021/11/08 11:28:26;;;;;;;19.52;6.85;;;;;;;11.00;71.95;101116.44;5020007;28;20045;-54
2021/11/08 11:30:53;;;;;;;22.55;7.53;;;;;;;11.08;72.05;101119.66;5023295;28;20049;-53
2021/11/08 11:33:23;;;;;;;19.85;6.93;;;;;;;11.21;70.62;101111.19;5026853;28;20061;-53
2021/11/08 11:36:08;;;;;;;19.20;6.25;;;;;;;10.87;71.21;101100.97;5023796;28;20132;-52
2021/11/08 11:38:41;;;;;;;15.63;6.53;;;;;;;10.81;71.21;101111.81;5018497;28;20050;-53
2021/11/08 11:41:15;;;;;;;22.02;7.22;;;;;;;10.66;72.00;101125.63;5028330;28;20045;-54
2021/11/08 11:43:56;;;;;;;22.38;6.25;;;;;;;10.61;72.32;101127.56;5025416;28;20402;-52
2021/11/08 11:46:32;;;;;;;22.05;7.15;;;;;;;10.32;72.70;101106.53;5027359;28;20144;-53
2021/11/08 11:49:02;;;;;;;18.80;7.00;;;;;;;10.31;73.66;101125.97;5017564;28;20079;-52
2021/11/08 11:51:36;;;;;;;19.30;7.45;;;;;;;10.25;74.53;101128.81;5027120;28;20045;-52
2021/11/08 11:54:05;;;;;;;17.30;7.20;;;;;;;10.22;75.29;101121.88;5026390;28;20050;-51
2021/11/08 11:56:34;;;;;;;21.20;6.40;;;;;;;10.17;75.62;101111.41;5029112;28;20141;-52
2021/11/08 11:59:01;;;;;;;20.50;6.20;;;;;;;10.17;75.54;101115.84;5011713;28;20451;-52
2021/11/08 12:01:29;;;;;;;17.63;6.07;;;;;;;10.16;75.92;101120.25;5017576;28;21082;-52
2021/11/08 12:04:15;;;;;;;14.18;5.50;;;;;;;10.17;75.07;101113.19;5006054;28;20042;-53
2021/11/08 12:06:45;;;;;;;19.90;5.68;;;;;;;10.19;74.91;101116.69;5005849;28;20056;-53
2021/11/08 12:09:20;;;;;;;20.55;5.85;;;;;;;10.14;75.03;101108.00;4996763;28;20042;-51
2021/11/08 12:11:53;;;;;;;13.98;5.82;;;;;;;10.16;74.75;101100.88;5006492;28;20045;-52
2021/11/08 12:14:23;;;;;;;20.48;6.00;;;;;;;10.13;74.51;101096.53;5004461;28;20048;-53
2021/11/08 12:17:04;;;;;;;18.77;5.88;;;;;;;10.31;73.42;101112.75;5006466;28;20128;-52
2021/11/08 12:19:36;;;;;;;19.20;5.13;;;;;;;10.30;72.83;101119.81;4996220;28;20446;-52
2021/11/08 12:22:14;;;;;;;19.60;5.78;;;;;;;10.32;72.26;101110.06;5006593;28;20049;-51
2021/11/08 12:24:43;;;;;;;14.00;5.20;;;;;;;10.35;72.95;101112.59;5006235;28;20128;-54
2021/11/08 12:27:13;;;;;;;19.17;5.45;;;;;;;10.37;72.34;101112.56;5000885;28;20056;-52
2021/11/08 12:29:49;;;;;;;12.85;5.10;;;;;;;10.33;73.41;101109.13;4995082;28;20042;-51
2021/11/08 12:32:15;;;;;;;18.77;5.43;;;;;;;10.26;73.25;101106.75;5005827;28;20507;-51
2021/11/08 12:34:46;;;;;;;18.83;5.32;;;;;;;10.36;73.41;101113.47;5003895;28;20046;-52
2021/11/08 12:37:14;;;;;;;13.52;4.32;;;;;;;10.35;72.82;101122.31;5006164;28;20046;-51
2021/11/08 12:39:54;;;;;;;14.88;4.20;;;;;;;10.39;72.36;101123.97;4995080;28;20491;-53
2021/11/08 12:42:21;;;;;;;15.48;4.45;;;;;;;10.41;72.92;101114.16;5001307;28;20046;-54
2021/11/08 12:44:50;;;;;;;13.73;5.20;;;;;;;10.46;73.36;101117.50;5006613;28;20045;-53
2021/11/08 12:47:16;;;;;;;17.10;4.63;;;;;;;10.51;72.31;101110.28;5006011;28;20065;-52
2021/11/08 12:49:52;;;;;;;20.15;5.60;;;;;;;10.63;72.25;101104.53;4995683;28;20041;-53
2021/11/08 12:52:22;;;;;;;19.63;5.47;;;;;;;10.71;72.46;101107.75;5005709;28;20038;-53
2021/11/08 12:55:10;;;;;;;19.83;4.63;;;;;;;10.78;71.78;101096.03;5005084;28;20062;-51
2021/11/08 12:57:38;;;;;;;15.68;4.22;;;;;;;10.87;71.95;101103.63;4998538;28;20037;-51
2021/11/08 13:00:21;;;;;;;13.13;4.35;;;;;;;10.86;71.08;101101.91;4986915;28;20057;-51
2021/11/08 13:02:54;;;;;;;10.48;4.40;;;;;;;10.83;71.09;101099.38;5004841;28;20042;-52
2021/11/08 13:05:26;;;;;;;17.13;5.10;;;;;;;10.85;71.94;101097.56;5003933;28;20671;-54
2021/11/08 13:07:54;;;;;;;19.38;5.30;;;;;;;10.86;71.54;101098.41;5005477;28;20488;-53
2021/11/08 13:10:33;;;;;;;18.23;5.18;;;;;;;10.83;71.80;101099.38;4990506;28;20407;-52
2021/11/08 13:13:00;;;;;;;16.52;5.63;;;;;;;10.82;72.83;101094.16;5003175;28;20045;-53
2021/11/08 13:15:30;;;;;;;17.90;4.75;;;;;;;10.67;71.76;101074.38;5005218;28;20049;-51
2021/11/08 13:18:00;;;;;;;15.57;4.38;;;;;;;10.80;71.59;101094.19;5005310;28;20112;-53
2021/11/08 13:20:30;;;;;;;13.82;4.53;;;;;;;10.84;71.81;101095.81;4990913;28;20452;-51
2021/11/08 13:23:00;;;;;;;13.00;3.97;;;;;;;10.92;71.63;101095.53;5006739;28;20065;-51
2021/11/08 13:25:32;;;;;;;18.67;4.90;;;;;;;10.87;70.38;101085.09;5005138;28;20064;-52
2021/11/08 13:28:05;;;;;;;13.50;4.88;;;;;;;10.89;69.61;101092.97;5004142;28;20506;-54
2021/11/08 13:30:44;;;;;;;14.57;3.75;;;;;;;10.92;69.91;101098.16;4992918;28;20452;-53